sensor_id;sensor_type;location;lat;lon;timestamp;temperature;humidity
9951;DHT22;24074;49.254;6.702;2023-07-13T00:01:16;14.40;99.90
9951;DHT22;24074;49.254;6.702;2023-07-13T00:03:41;14.50;99.90
9951;DHT22;24074;49.254;6.702;2023-07-13T00:06:08;14.40;99.90
9951;DHT22;24074;49.254;6.702;2023-07-13T00:08:34;14.30;99.90
9951;DHT22;24074;49.254;6.702;2023-07-13T00:11:01;14.20;99.90
9951;DHT22;24074;49.254;6.702;2023-07-13T00:13:28;14.10;99.90
9951;DHT22;24074;49.254;6.702;2023-07-13T00:15:54;14.10;99.90
9951;DHT22;24074;49.254;6.702;2023-07-13T00:18:21;13.90;99.90
9951;DHT22;24074;49.254;6.702;2023-07-13T00:20:47;14.00;99.90
9951;DHT22;24074;49.254;6.702;2023-07-13T00:23:13;14.10;99.90
9951;DHT22;24074;49.254;6.702;2023-07-13T00:25:38;14.20;99.90
9951;DHT22;24074;49.254;6.702;2023-07-13T00:28:04;14.20;99.90
9951;DHT22;24074;49.254;6.702;2023-07-13T00:30:29;14.10;99.90
9951;DHT22;24074;49.254;6.702;2023-07-13T00:32:55;14.00;99.90
9951;DHT22;24074;49.254;6.702;2023-07-13T00:35:21;14.10;99.90
9951;DHT22;24074;49.254;6.702;2023-07-13T00:37:46;14.10;99.90
9951;DHT22;24074;49.254;6.702;2023-07-13T00:40:13;13.90;99.90
9951;DHT22;24074;49.254;6.702;2023-07-13T00:42:40;13.70;99.90
9951;DHT22;24074;49.254;6.702;2023-07-13T00:47:41;13.60;99.90
9951;DHT22;24074;49.254;6.702;2023-07-13T00:50:10;13.50;99.90
9951;DHT22;24074;49.254;6.702;2023-07-13T00:52:41;13.40;99.90
9951;DHT22;24074;49.254;6.702;2023-07-13T00:55:09;13.40;99.90
9951;DHT22;24074;49.254;6.702;2023-07-13T00:57:36;13.30;99.90
9951;DHT22;24074;49.254;6.702;2023-07-13T01:00:05;13.30;99.90
9951;DHT22;24074;49.254;6.702;2023-07-13T01:02:32;13.20;99.90
9951;DHT22;24074;49.254;6.702;2023-07-13T01:04:58;13.30;99.90
9951;DHT22;24074;49.254;6.702;2023-07-13T01:07:24;13.50;99.90
9951;DHT22;24074;49.254;6.702;2023-07-13T01:09:50;13.70;99.90
9951;DHT22;24074;49.254;6.702;2023-07-13T01:12:16;13.80;99.90
9951;DHT22;24074;49.254;6.702;2023-07-13T01:14:41;13.80;99.90
9951;DHT22;24074;49.254;6.702;2023-07-13T01:17:09;13.60;99.90
9951;DHT22;24074;49.254;6.702;2023-07-13T01:22:06;13.40;99.90
9951;DHT22;24074;49.254;6.702;2023-07-13T01:24:35;13.30;99.90
9951;DHT22;24074;49.254;6.702;2023-07-13T01:27:01;13.20;99.90
9951;DHT22;24074;49.254;6.702;2023-07-13T01:29:27;13.10;99.90
9951;DHT22;24074;49.254;6.702;2023-07-13T01:31:53;12.90;99.90
9951;DHT22;24074;49.254;6.702;2023-07-13T01:34:19;12.90;99.90
9951;DHT22;24074;49.254;6.702;2023-07-13T01:36:44;12.90;99.90
9951;DHT22;24074;49.254;6.702;2023-07-13T01:39:10;12.90;99.90
9951;DHT22;24074;49.254;6.702;2023-07-13T01:41:35;12.80;99.90
9951;DHT22;24074;49.254;6.702;2023-07-13T01:44:01;12.80;99.90
9951;DHT22;24074;49.254;6.702;2023-07-13T01:46:26;13.00;99.90
9951;DHT22;24074;49.254;6.702;2023-07-13T01:48:52;13.20;99.90
9951;DHT22;24074;49.254;6.702;2023-07-13T01:51:19;13.20;99.90
9951;DHT22;24074;49.254;6.702;2023-07-13T01:53:44;13.10;99.90
9951;DHT22;24074;49.254;6.702;2023-07-13T01:56:10;13.00;99.90
9951;DHT22;24074;49.254;6.702;2023-07-13T01:58:36;12.90;99.90
9951;DHT22;24074;49.254;6.702;2023-07-13T02:01:01;12.90;99.90
9951;DHT22;24074;49.254;6.702;2023-07-13T02:03:27;12.90;99.90
9951;DHT22;24074;49.254;6.702;2023-07-13T02:05:52;13.00;99.90
9951;DHT22;24074;49.254;6.702;2023-07-13T02:08:18;13.20;99.90
9951;DHT22;24074;49.254;6.702;2023-07-13T02:10:43;13.40;99.90
9951;DHT22;24074;49.254;6.702;2023-07-13T02:13:09;13.40;99.90
9951;DHT22;24074;49.254;6.702;2023-07-13T02:15:38;13.30;99.90
9951;DHT22;24074;49.254;6.702;2023-07-13T02:18:04;13.30;99.90
9951;DHT22;24074;49.254;6.702;2023-07-13T02:20:30;13.30;99.90
9951;DHT22;24074;49.254;6.702;2023-07-13T02:22:55;13.10;99.90
9951;DHT22;24074;49.254;6.702;2023-07-13T02:25:21;13.10;99.90
9951;DHT22;24074;49.254;6.702;2023-07-13T02:27:47;13.00;99.90
9951;DHT22;24074;49.254;6.702;2023-07-13T02:30:14;13.00;99.90
9951;DHT22;24074;49.254;6.702;2023-07-13T02:32:40;12.80;99.90
9951;DHT22;24074;49.254;6.702;2023-07-13T02:35:06;12.70;99.90
9951;DHT22;24074;49.254;6.702;2023-07-13T02:37:31;12.60;99.90
9951;DHT22;24074;49.254;6.702;2023-07-13T02:39:57;12.60;99.90
9951;DHT22;24074;49.254;6.702;2023-07-13T02:42:23;12.70;99.90
9951;DHT22;24074;49.254;6.702;2023-07-13T02:44:48;12.80;99.90
9951;DHT22;24074;49.254;6.702;2023-07-13T02:47:16;12.70;99.90
9951;DHT22;24074;49.254;6.702;2023-07-13T02:49:41;12.70;99.90
9951;DHT22;24074;49.254;6.702;2023-07-13T02:52:07;12.60;99.90
9951;DHT22;24074;49.254;6.702;2023-07-13T02:54:33;12.60;99.90
9951;DHT22;24074;49.254;6.702;2023-07-13T02:56:58;12.70;99.90
9951;DHT22;24074;49.254;6.702;2023-07-13T02:59:24;12.60;99.90
9951;DHT22;24074;49.254;6.702;2023-07-13T03:01:49;12.70;99.90
9951;DHT22;24074;49.254;6.702;2023-07-13T03:04:15;12.80;99.90
9951;DHT22;24074;49.254;6.702;2023-07-13T03:06:44;12.80;99.90
9951;DHT22;24074;49.254;6.702;2023-07-13T03:09:10;12.70;99.90
9951;DHT22;24074;49.254;6.702;2023-07-13T03:11:38;12.90;99.90
9951;DHT22;24074;49.254;6.702;2023-07-13T03:14:03;13.00;99.90
9951;DHT22;24074;49.254;6.702;2023-07-13T03:16:29;13.10;99.90
9951;DHT22;24074;49.254;6.702;2023-07-13T03:18:55;13.20;99.90
9951;DHT22;24074;49.254;6.702;2023-07-13T03:21:21;13.30;99.90
9951;DHT22;24074;49.254;6.702;2023-07-13T03:23:47;13.30;99.90
9951;DHT22;24074;49.254;6.702;2023-07-13T03:26:15;13.10;99.90
9951;DHT22;24074;49.254;6.702;2023-07-13T03:28:42;13.10;99.90
9951;DHT22;24074;49.254;6.702;2023-07-13T03:31:10;13.20;99.90
9951;DHT22;24074;49.254;6.702;2023-07-13T03:33:37;13.20;99.90
9951;DHT22;24074;49.254;6.702;2023-07-13T03:36:03;13.30;99.90
9951;DHT22;24074;49.254;6.702;2023-07-13T03:38:29;13.40;99.90
9951;DHT22;24074;49.254;6.702;2023-07-13T03:40:55;13.30;99.90
9951;DHT22;24074;49.254;6.702;2023-07-13T03:43:20;13.40;99.90
9951;DHT22;24074;49.254;6.702;2023-07-13T03:45:46;13.50;99.90
9951;DHT22;24074;49.254;6.702;2023-07-13T03:48:12;13.40;99.90
9951;DHT22;24074;49.254;6.702;2023-07-13T03:50:37;13.30;99.90
9951;DHT22;24074;49.254;6.702;2023-07-13T03:53:04;13.10;99.90
9951;DHT22;24074;49.254;6.702;2023-07-13T03:55:29;13.10;99.90
9951;DHT22;24074;49.254;6.702;2023-07-13T04:00:50;13.30;99.90
9951;DHT22;24074;49.254;6.702;2023-07-13T04:03:16;13.50;99.90
9951;DHT22;24074;49.254;6.702;2023-07-13T04:05:42;13.60;99.90
9951;DHT22;24074;49.254;6.702;2023-07-13T04:08:08;13.60;99.90
9951;DHT22;24074;49.254;6.702;2023-07-13T04:10:34;13.70;99.90
9951;DHT22;24074;49.254;6.702;2023-07-13T04:12:59;13.80;99.90
9951;DHT22;24074;49.254;6.702;2023-07-13T04:15:25;13.80;99.90
9951;DHT22;24074;49.254;6.702;2023-07-13T04:17:51;13.80;99.90
9951;DHT22;24074;49.254;6.702;2023-07-13T04:20:17;14.00;99.90
9951;DHT22;24074;49.254;6.702;2023-07-13T04:22:42;14.10;99.90
9951;DHT22;24074;49.254;6.702;2023-07-13T04:25:08;14.20;99.90
9951;DHT22;24074;49.254;6.702;2023-07-13T04:27:33;14.20;99.90
9951;DHT22;24074;49.254;6.702;2023-07-13T04:29:59;14.20;99.90
9951;DHT22;24074;49.254;6.702;2023-07-13T04:32:24;14.20;99.90
9951;DHT22;24074;49.254;6.702;2023-07-13T04:34:50;14.10;99.90
9951;DHT22;24074;49.254;6.702;2023-07-13T04:37:18;14.30;99.90
9951;DHT22;24074;49.254;6.702;2023-07-13T04:39:44;14.10;99.90
9951;DHT22;24074;49.254;6.702;2023-07-13T04:42:09;14.10;99.90
9951;DHT22;24074;49.254;6.702;2023-07-13T04:44:35;14.10;99.90
9951;DHT22;24074;49.254;6.702;2023-07-13T04:47:00;14.20;99.90
9951;DHT22;24074;49.254;6.702;2023-07-13T04:49:26;14.30;99.90
9951;DHT22;24074;49.254;6.702;2023-07-13T04:51:51;14.50;99.90
9951;DHT22;24074;49.254;6.702;2023-07-13T04:54:17;14.40;99.90
9951;DHT22;24074;49.254;6.702;2023-07-13T04:56:42;14.60;99.90
9951;DHT22;24074;49.254;6.702;2023-07-13T04:59:08;14.60;99.90
9951;DHT22;24074;49.254;6.702;2023-07-13T05:01:33;14.90;99.90
9951;DHT22;24074;49.254;6.702;2023-07-13T05:03:59;15.10;99.90
9951;DHT22;24074;49.254;6.702;2023-07-13T05:06:25;15.20;99.90
9951;DHT22;24074;49.254;6.702;2023-07-13T05:08:50;15.30;99.90
9951;DHT22;24074;49.254;6.702;2023-07-13T05:11:18;15.50;99.90
9951;DHT22;24074;49.254;6.702;2023-07-13T05:13:44;15.70;99.90
9951;DHT22;24074;49.254;6.702;2023-07-13T05:16:09;16.10;99.90
9951;DHT22;24074;49.254;6.702;2023-07-13T05:18:35;16.30;99.90
9951;DHT22;24074;49.254;6.702;2023-07-13T05:21:06;16.60;99.90
9951;DHT22;24074;49.254;6.702;2023-07-13T05:23:36;16.90;99.90
9951;DHT22;24074;49.254;6.702;2023-07-13T05:26:03;17.00;99.90
9951;DHT22;24074;49.254;6.702;2023-07-13T05:28:30;17.00;99.90
9951;DHT22;24074;49.254;6.702;2023-07-13T05:30:57;17.20;99.90
9951;DHT22;24074;49.254;6.702;2023-07-13T05:33:22;17.30;99.90
9951;DHT22;24074;49.254;6.702;2023-07-13T05:35:48;17.50;99.90
9951;DHT22;24074;49.254;6.702;2023-07-13T05:38:14;17.50;99.90
9951;DHT22;24074;49.254;6.702;2023-07-13T05:40:39;17.50;99.90
9951;DHT22;24074;49.254;6.702;2023-07-13T05:43:07;17.40;99.90
9951;DHT22;24074;49.254;6.702;2023-07-13T05:45:32;17.50;99.90
9951;DHT22;24074;49.254;6.702;2023-07-13T05:47:58;17.90;99.90
9951;DHT22;24074;49.254;6.702;2023-07-13T05:50:24;19.20;99.90
9951;DHT22;24074;49.254;6.702;2023-07-13T05:52:49;20.80;99.90
9951;DHT22;24074;49.254;6.702;2023-07-13T05:55:15;22.30;99.90
9951;DHT22;24074;49.254;6.702;2023-07-13T05:57:40;23.40;99.90
9951;DHT22;24074;49.254;6.702;2023-07-13T06:00:06;24.20;99.90
9951;DHT22;24074;49.254;6.702;2023-07-13T06:02:32;23.50;99.90
9951;DHT22;24074;49.254;6.702;2023-07-13T06:04:58;23.10;99.90
9951;DHT22;24074;49.254;6.702;2023-07-13T06:07:24;22.90;99.90
9951;DHT22;24074;49.254;6.702;2023-07-13T06:09:49;23.40;99.90
9951;DHT22;24074;49.254;6.702;2023-07-13T06:12:15;22.50;99.90
9951;DHT22;24074;49.254;6.702;2023-07-13T06:14:41;21.80;99.90
9951;DHT22;24074;49.254;6.702;2023-07-13T06:17:07;20.90;99.90
9951;DHT22;24074;49.254;6.702;2023-07-13T06:19:33;20.30;99.90
9951;DHT22;24074;49.254;6.702;2023-07-13T06:21:59;20.10;99.90
9951;DHT22;24074;49.254;6.702;2023-07-13T06:24:25;19.90;99.90
9951;DHT22;24074;49.254;6.702;2023-07-13T06:26:51;19.80;99.90
9951;DHT22;24074;49.254;6.702;2023-07-13T06:29:16;20.90;99.90
9951;DHT22;24074;49.254;6.702;2023-07-13T06:31:42;22.50;99.90
9951;DHT22;24074;49.254;6.702;2023-07-13T06:34:08;23.30;99.90
9951;DHT22;24074;49.254;6.702;2023-07-13T06:36:33;23.60;99.90
9951;DHT22;24074;49.254;6.702;2023-07-13T06:38:59;24.00;99.90
9951;DHT22;24074;49.254;6.702;2023-07-13T06:41:25;23.70;99.90
9951;DHT22;24074;49.254;6.702;2023-07-13T06:43:53;23.30;99.90
9951;DHT22;24074;49.254;6.702;2023-07-13T06:46:21;22.60;99.90
9951;DHT22;24074;49.254;6.702;2023-07-13T06:48:47;22.20;99.90
9951;DHT22;24074;49.254;6.702;2023-07-13T06:51:13;22.30;99.90
9951;DHT22;24074;49.254;6.702;2023-07-13T06:53:38;22.20;99.90
9951;DHT22;24074;49.254;6.702;2023-07-13T06:56:04;22.70;99.90
9951;DHT22;24074;49.254;6.702;2023-07-13T06:58:30;24.50;99.90
9951;DHT22;24074;49.254;6.702;2023-07-13T07:00:56;26.20;99.90
9951;DHT22;24074;49.254;6.702;2023-07-13T07:03:22;27.40;98.30
9951;DHT22;24074;49.254;6.702;2023-07-13T07:05:47;27.80;96.80
9951;DHT22;24074;49.254;6.702;2023-07-13T07:08:13;28.10;95.00
9951;DHT22;24074;49.254;6.702;2023-07-13T07:10:39;27.70;95.80
9951;DHT22;24074;49.254;6.702;2023-07-13T07:13:05;28.40;95.20
9951;DHT22;24074;49.254;6.702;2023-07-13T07:15:31;29.70;92.20
9951;DHT22;24074;49.254;6.702;2023-07-13T07:17:56;30.40;87.10
9951;DHT22;24074;49.254;6.702;2023-07-13T07:20:22;29.30;88.90
9951;DHT22;24074;49.254;6.702;2023-07-13T07:22:48;30.00;83.90
9951;DHT22;24074;49.254;6.702;2023-07-13T07:25:14;30.30;81.60
9951;DHT22;24074;49.254;6.702;2023-07-13T07:27:39;29.70;80.70
9951;DHT22;24074;49.254;6.702;2023-07-13T07:30:05;30.00;80.10
9951;DHT22;24074;49.254;6.702;2023-07-13T07:32:31;30.20;78.30
9951;DHT22;24074;49.254;6.702;2023-07-13T07:34:58;30.80;74.70
9951;DHT22;24074;49.254;6.702;2023-07-13T07:37:23;31.30;74.30
9951;DHT22;24074;49.254;6.702;2023-07-13T07:39:49;31.20;71.90
9951;DHT22;24074;49.254;6.702;2023-07-13T07:42:15;31.30;69.70
9951;DHT22;24074;49.254;6.702;2023-07-13T07:44:41;31.10;69.80
9951;DHT22;24074;49.254;6.702;2023-07-13T07:47:08;31.30;67.30
9951;DHT22;24074;49.254;6.702;2023-07-13T07:49:35;31.00;69.60
9951;DHT22;24074;49.254;6.702;2023-07-13T07:52:00;30.10;72.60
9951;DHT22;24074;49.254;6.702;2023-07-13T07:54:26;30.60;70.40
9951;DHT22;24074;49.254;6.702;2023-07-13T07:56:52;31.00;70.10
9951;DHT22;24074;49.254;6.702;2023-07-13T07:59:18;32.50;65.10
9951;DHT22;24074;49.254;6.702;2023-07-13T08:01:44;31.90;63.20
9951;DHT22;24074;49.254;6.702;2023-07-13T08:04:11;31.70;64.50
9951;DHT22;24074;49.254;6.702;2023-07-13T08:06:37;30.30;66.00
9951;DHT22;24074;49.254;6.702;2023-07-13T08:09:03;29.20;70.20
9951;DHT22;24074;49.254;6.702;2023-07-13T08:11:30;29.60;69.20
9951;DHT22;24074;49.254;6.702;2023-07-13T08:13:55;31.60;66.40
9951;DHT22;24074;49.254;6.702;2023-07-13T08:16:22;33.10;60.50
9951;DHT22;24074;49.254;6.702;2023-07-13T08:18:48;33.10;59.20
9951;DHT22;24074;49.254;6.702;2023-07-13T08:21:14;33.10;59.00
9951;DHT22;24074;49.254;6.702;2023-07-13T08:23:39;32.90;59.90
9951;DHT22;24074;49.254;6.702;2023-07-13T08:26:05;32.10;59.00
9951;DHT22;24074;49.254;6.702;2023-07-13T08:28:31;30.80;62.80
9951;DHT22;24074;49.254;6.702;2023-07-13T08:31:05;30.10;63.90
9951;DHT22;24074;49.254;6.702;2023-07-13T08:33:31;30.50;64.70
9951;DHT22;24074;49.254;6.702;2023-07-13T08:35:56;30.60;63.90
9951;DHT22;24074;49.254;6.702;2023-07-13T08:38:22;30.50;64.30
9951;DHT22;24074;49.254;6.702;2023-07-13T08:40:56;31.50;62.70
9951;DHT22;24074;49.254;6.702;2023-07-13T08:43:35;30.20;62.30
9951;DHT22;24074;49.254;6.702;2023-07-13T08:46:26;29.80;64.50
9951;DHT22;24074;49.254;6.702;2023-07-13T08:49:10;29.70;65.70
9951;DHT22;24074;49.254;6.702;2023-07-13T08:51:45;31.40;63.40
9951;DHT22;24074;49.254;6.702;2023-07-13T08:54:28;33.00;59.20
9951;DHT22;24074;49.254;6.702;2023-07-13T08:56:56;33.40;57.20
9951;DHT22;24074;49.254;6.702;2023-07-13T08:59:27;33.80;57.70
9951;DHT22;24074;49.254;6.702;2023-07-13T09:02:01;33.50;57.10
9951;DHT22;24074;49.254;6.702;2023-07-13T09:04:42;34.10;57.90
9951;DHT22;24074;49.254;6.702;2023-07-13T09:10:20;37.10;52.10
9951;DHT22;24074;49.254;6.702;2023-07-13T09:15:34;36.40;51.10
9951;DHT22;24074;49.254;6.702;2023-07-13T09:18:10;37.00;48.90
9951;DHT22;24074;49.254;6.702;2023-07-13T09:21:02;37.00;49.00
9951;DHT22;24074;49.254;6.702;2023-07-13T09:23:29;36.50;48.20
9951;DHT22;24074;49.254;6.702;2023-07-13T09:26:19;35.80;49.00
9951;DHT22;24074;49.254;6.702;2023-07-13T09:28:49;35.30;48.80
9951;DHT22;24074;49.254;6.702;2023-07-13T09:31:28;34.30;52.00
9951;DHT22;24074;49.254;6.702;2023-07-13T09:33:56;34.90;50.00
9951;DHT22;24074;49.254;6.702;2023-07-13T09:36:27;34.80;49.40
9951;DHT22;24074;49.254;6.702;2023-07-13T09:42:16;35.50;48.60
9951;DHT22;24074;49.254;6.702;2023-07-13T09:44:56;35.10;49.00
9951;DHT22;24074;49.254;6.702;2023-07-13T09:47:29;33.30;49.80
9951;DHT22;24074;49.254;6.702;2023-07-13T09:50:00;32.10;51.80
9951;DHT22;24074;49.254;6.702;2023-07-13T09:52:27;31.60;53.60
9951;DHT22;24074;49.254;6.702;2023-07-13T09:54:55;32.90;52.80
9951;DHT22;24074;49.254;6.702;2023-07-13T09:57:26;33.50;51.30
9951;DHT22;24074;49.254;6.702;2023-07-13T09:59:53;33.80;50.50
9951;DHT22;24074;49.254;6.702;2023-07-13T10:02:29;33.20;51.10
9951;DHT22;24074;49.254;6.702;2023-07-13T10:04:57;33.80;51.00
9951;DHT22;24074;49.254;6.702;2023-07-13T10:07:24;34.10;50.30
9951;DHT22;24074;49.254;6.702;2023-07-13T10:09:57;33.70;50.00
9951;DHT22;24074;49.254;6.702;2023-07-13T10:12:24;31.80;51.90
9951;DHT22;24074;49.254;6.702;2023-07-13T10:14:55;31.30;53.80
9951;DHT22;24074;49.254;6.702;2023-07-13T10:17:29;33.70;51.60
9951;DHT22;24074;49.254;6.702;2023-07-13T10:20:04;33.30;51.00
9951;DHT22;24074;49.254;6.702;2023-07-13T10:25:23;32.90;53.50
9951;DHT22;24074;49.254;6.702;2023-07-13T10:27:52;35.10;50.00
9951;DHT22;24074;49.254;6.702;2023-07-13T10:30:20;34.90;49.80
9951;DHT22;24074;49.254;6.702;2023-07-13T10:32:48;35.00;49.90
9951;DHT22;24074;49.254;6.702;2023-07-13T10:35:17;35.30;49.10
9951;DHT22;24074;49.254;6.702;2023-07-13T10:37:54;36.00;48.60
9951;DHT22;24074;49.254;6.702;2023-07-13T10:40:39;35.10;48.40
9951;DHT22;24074;49.254;6.702;2023-07-13T10:43:20;35.10;48.40
9951;DHT22;24074;49.254;6.702;2023-07-13T10:45:48;33.00;50.10
9951;DHT22;24074;49.254;6.702;2023-07-13T10:48:15;32.80;50.60
9951;DHT22;24074;49.254;6.702;2023-07-13T10:50:44;31.00;51.80
9951;DHT22;24074;49.254;6.702;2023-07-13T10:53:31;29.50;54.30
9951;DHT22;24074;49.254;6.702;2023-07-13T10:56:03;28.10;56.10
9951;DHT22;24074;49.254;6.702;2023-07-13T10:58:41;28.30;57.20
9951;DHT22;24074;49.254;6.702;2023-07-13T11:01:17;29.60;56.00
9951;DHT22;24074;49.254;6.702;2023-07-13T11:03:51;30.30;54.90
9951;DHT22;24074;49.254;6.702;2023-07-13T11:13:58;30.30;53.60
9951;DHT22;24074;49.254;6.702;2023-07-13T11:24:56;28.10;58.80
9951;DHT22;24074;49.254;6.702;2023-07-13T11:27:43;29.60;56.10
9951;DHT22;24074;49.254;6.702;2023-07-13T11:30:46;30.40;55.80
9951;DHT22;24074;49.254;6.702;2023-07-13T11:34:08;29.30;55.90
9951;DHT22;24074;49.254;6.702;2023-07-13T11:36:20;27.90;57.20
9951;DHT22;24074;49.254;6.702;2023-07-13T11:41:26;27.10;59.90
9951;DHT22;24074;49.254;6.702;2023-07-13T11:44:11;26.70;60.90
9951;DHT22;24074;49.254;6.702;2023-07-13T11:46:37;26.50;61.60
9951;DHT22;24074;49.254;6.702;2023-07-13T11:49:05;26.60;61.70
9951;DHT22;24074;49.254;6.702;2023-07-13T11:51:34;26.60;62.20
9951;DHT22;24074;49.254;6.702;2023-07-13T11:54:31;26.30;62.90
9951;DHT22;24074;49.254;6.702;2023-07-13T11:56:59;26.20;61.60
9951;DHT22;24074;49.254;6.702;2023-07-13T11:59:27;25.80;63.60
9951;DHT22;24074;49.254;6.702;2023-07-13T12:01:55;25.70;63.70
9951;DHT22;24074;49.254;6.702;2023-07-13T12:04:27;26.20;64.20
9951;DHT22;24074;49.254;6.702;2023-07-13T12:07:03;26.30;64.30
9951;DHT22;24074;49.254;6.702;2023-07-13T12:09:29;26.60;62.60
9951;DHT22;24074;49.254;6.702;2023-07-13T12:11:57;26.20;63.00
9951;DHT22;24074;49.254;6.702;2023-07-13T12:14:23;26.10;63.40
9951;DHT22;24074;49.254;6.702;2023-07-13T12:16:50;26.20;64.30
9951;DHT22;24074;49.254;6.702;2023-07-13T12:19:21;26.40;64.30
9951;DHT22;24074;49.254;6.702;2023-07-13T12:21:48;26.40;64.40
9951;DHT22;24074;49.254;6.702;2023-07-13T12:24:17;26.60;63.60
9951;DHT22;24074;49.254;6.702;2023-07-13T12:26:43;26.60;62.60
9951;DHT22;24074;49.254;6.702;2023-07-13T12:29:16;25.90;63.80
9951;DHT22;24074;49.254;6.702;2023-07-13T12:31:44;25.60;65.30
9951;DHT22;24074;49.254;6.702;2023-07-13T12:34:15;25.60;66.30
9951;DHT22;24074;49.254;6.702;2023-07-13T12:36:50;25.70;67.50
9951;DHT22;24074;49.254;6.702;2023-07-13T12:39:20;26.00;66.70
9951;DHT22;24074;49.254;6.702;2023-07-13T12:41:48;26.30;66.40
9951;DHT22;24074;49.254;6.702;2023-07-13T12:44:18;26.70;65.50
9951;DHT22;24074;49.254;6.702;2023-07-13T12:47:04;26.70;64.40
9951;DHT22;24074;49.254;6.702;2023-07-13T12:49:32;27.10;63.90
9951;DHT22;24074;49.254;6.702;2023-07-13T12:52:02;27.10;64.00
9951;DHT22;24074;49.254;6.702;2023-07-13T12:54:29;27.50;64.00
9951;DHT22;24074;49.254;6.702;2023-07-13T12:56:57;27.80;64.00
9951;DHT22;24074;49.254;6.702;2023-07-13T12:59:26;28.00;61.30
9951;DHT22;24074;49.254;6.702;2023-07-13T13:01:54;28.50;59.40
9951;DHT22;24074;49.254;6.702;2023-07-13T13:04:20;28.80;58.30
9951;DHT22;24074;49.254;6.702;2023-07-13T13:06:47;28.80;58.00
9951;DHT22;24074;49.254;6.702;2023-07-13T13:09:15;27.80;58.90
9951;DHT22;24074;49.254;6.702;2023-07-13T13:11:41;27.30;60.60
9951;DHT22;24074;49.254;6.702;2023-07-13T13:14:07;26.60;60.70
9951;DHT22;24074;49.254;6.702;2023-07-13T13:16:35;26.20;63.50
9951;DHT22;24074;49.254;6.702;2023-07-13T13:19:13;26.20;64.10
9951;DHT22;24074;49.254;6.702;2023-07-13T13:21:39;26.50;64.40
9951;DHT22;24074;49.254;6.702;2023-07-13T13:24:17;26.90;63.50
9951;DHT22;24074;49.254;6.702;2023-07-13T13:26:43;27.00;62.00
9951;DHT22;24074;49.254;6.702;2023-07-13T13:29:22;26.60;61.80
9951;DHT22;24074;49.254;6.702;2023-07-13T13:31:50;26.50;62.30
9951;DHT22;24074;49.254;6.702;2023-07-13T13:34:17;26.80;62.70
9951;DHT22;24074;49.254;6.702;2023-07-13T13:36:44;27.00;61.10
9951;DHT22;24074;49.254;6.702;2023-07-13T13:39:21;27.20;62.00
9951;DHT22;24074;49.254;6.702;2023-07-13T13:41:47;27.50;60.80
9951;DHT22;24074;49.254;6.702;2023-07-13T13:44:15;27.60;60.30
9951;DHT22;24074;49.254;6.702;2023-07-13T13:46:41;28.30;59.80
9951;DHT22;24074;49.254;6.702;2023-07-13T13:49:16;28.20;57.50
9951;DHT22;24074;49.254;6.702;2023-07-13T13:51:43;28.20;57.30
9951;DHT22;24074;49.254;6.702;2023-07-13T13:54:19;27.50;58.40
9951;DHT22;24074;49.254;6.702;2023-07-13T13:56:47;27.60;58.20
9951;DHT22;24074;49.254;6.702;2023-07-13T13:59:13;27.80;58.40
9951;DHT22;24074;49.254;6.702;2023-07-13T14:01:41;27.80;56.90
9951;DHT22;24074;49.254;6.702;2023-07-13T14:04:20;28.00;57.30
9951;DHT22;24074;49.254;6.702;2023-07-13T14:06:46;28.40;56.80
9951;DHT22;24074;49.254;6.702;2023-07-13T14:09:14;28.60;55.90
9951;DHT22;24074;49.254;6.702;2023-07-13T14:11:41;28.50;55.90
9951;DHT22;24074;49.254;6.702;2023-07-13T14:14:19;28.00;56.10
9951;DHT22;24074;49.254;6.702;2023-07-13T14:16:45;27.80;56.70
9951;DHT22;24074;49.254;6.702;2023-07-13T14:19:18;27.60;56.90
9951;DHT22;24074;49.254;6.702;2023-07-13T14:21:44;27.30;57.50
9951;DHT22;24074;49.254;6.702;2023-07-13T14:24:10;27.30;57.80
9951;DHT22;24074;49.254;6.702;2023-07-13T14:26:39;26.90;57.40
9951;DHT22;24074;49.254;6.702;2023-07-13T14:29:13;26.90;57.80
9951;DHT22;24074;49.254;6.702;2023-07-13T14:31:40;26.90;57.80
9951;DHT22;24074;49.254;6.702;2023-07-13T14:34:05;26.60;58.60
9951;DHT22;24074;49.254;6.702;2023-07-13T14:36:33;27.00;58.50
9951;DHT22;24074;49.254;6.702;2023-07-13T14:39:09;27.60;58.40
9951;DHT22;24074;49.254;6.702;2023-07-13T14:41:36;27.80;58.30
9951;DHT22;24074;49.254;6.702;2023-07-13T14:44:11;27.70;58.30
9951;DHT22;24074;49.254;6.702;2023-07-13T14:46:37;27.80;58.00
9951;DHT22;24074;49.254;6.702;2023-07-13T14:51:35;26.70;59.00
9951;DHT22;24074;49.254;6.702;2023-07-13T14:54:03;26.30;60.60
9951;DHT22;24074;49.254;6.702;2023-07-13T14:56:29;26.00;62.60
9951;DHT22;24074;49.254;6.702;2023-07-13T14:58:55;26.20;61.80
9951;DHT22;24074;49.254;6.702;2023-07-13T15:01:21;26.00;61.90
9951;DHT22;24074;49.254;6.702;2023-07-13T15:03:49;26.20;61.50
9951;DHT22;24074;49.254;6.702;2023-07-13T15:06:15;26.20;62.10
9951;DHT22;24074;49.254;6.702;2023-07-13T15:08:41;26.50;61.80
9951;DHT22;24074;49.254;6.702;2023-07-13T15:11:08;26.70;60.60
9951;DHT22;24074;49.254;6.702;2023-07-13T15:13:37;26.70;61.30
9951;DHT22;24074;49.254;6.702;2023-07-13T15:16:03;26.70;61.40
9951;DHT22;24074;49.254;6.702;2023-07-13T15:18:30;26.60;61.10
9951;DHT22;24074;49.254;6.702;2023-07-13T15:20:56;26.60;61.40
9951;DHT22;24074;49.254;6.702;2023-07-13T15:23:25;27.20;61.60
9951;DHT22;24074;49.254;6.702;2023-07-13T15:25:51;27.50;60.30
9951;DHT22;24074;49.254;6.702;2023-07-13T15:28:17;27.20;59.80
9951;DHT22;24074;49.254;6.702;2023-07-13T15:30:48;27.10;61.40
9951;DHT22;24074;49.254;6.702;2023-07-13T15:33:16;27.00;62.70
9951;DHT22;24074;49.254;6.702;2023-07-13T15:35:45;27.20;60.50
9951;DHT22;24074;49.254;6.702;2023-07-13T15:38:29;27.30;60.20
9951;DHT22;24074;49.254;6.702;2023-07-13T15:40:56;27.00;61.00
9951;DHT22;24074;49.254;6.702;2023-07-13T15:43:22;26.50;62.10
9951;DHT22;24074;49.254;6.702;2023-07-13T15:45:48;26.20;63.00
9951;DHT22;24074;49.254;6.702;2023-07-13T15:48:18;25.90;64.00
9951;DHT22;24074;49.254;6.702;2023-07-13T15:50:52;25.80;63.70
9951;DHT22;24074;49.254;6.702;2023-07-13T15:53:28;26.10;64.40
9951;DHT22;24074;49.254;6.702;2023-07-13T15:55:54;26.70;62.30
9951;DHT22;24074;49.254;6.702;2023-07-13T15:58:20;26.80;62.50
9951;DHT22;24074;49.254;6.702;2023-07-13T16:00:46;26.60;61.20
9951;DHT22;24074;49.254;6.702;2023-07-13T16:03:16;26.60;61.80
9951;DHT22;24074;49.254;6.702;2023-07-13T16:05:42;26.00;61.50
9951;DHT22;24074;49.254;6.702;2023-07-13T16:08:23;25.70;63.70
9951;DHT22;24074;49.254;6.702;2023-07-13T16:10:49;25.70;63.90
9951;DHT22;24074;49.254;6.702;2023-07-13T16:13:16;25.60;64.90
9951;DHT22;24074;49.254;6.702;2023-07-13T16:15:42;25.40;65.60
9951;DHT22;24074;49.254;6.702;2023-07-13T16:18:10;25.50;65.50
9951;DHT22;24074;49.254;6.702;2023-07-13T16:20:37;25.50;66.00
9951;DHT22;24074;49.254;6.702;2023-07-13T16:23:03;25.60;65.90
9951;DHT22;24074;49.254;6.702;2023-07-13T16:25:29;25.50;65.70
9951;DHT22;24074;49.254;6.702;2023-07-13T16:27:58;25.30;65.90
9951;DHT22;24074;49.254;6.702;2023-07-13T16:30:28;25.40;67.10
9951;DHT22;24074;49.254;6.702;2023-07-13T16:32:55;25.70;66.10